Terminal Aerodrome Forecast
Issued by NWS North Platte, NE

Home | Current Version | Previous Version | Graphics & Text | Print | Product List | Glossary On
Versions: 1 2 3 4 5 6 7 8 9 10 11 12 13 14 15 16 17 18 19 20 21 22 23 24 25 26 27
000
FTUS43 KLBF 310500 RRA
TAFVTN
TAF
KVTN 310553Z 3106/0106 24005KT P6SM OVC200
     FM311000 02006KT P6SM OVC200
     FM311500 04006KT P6SM BKN008 OVC150
     FM311800 05008KT 5SM BR OVC008
     FM312100 04010KT 3SM -SN BR OVC007=

USA.gov is the U.S. government's official web portal to all federal, state and local government web resources and services.